Time;durP1;ratioP1;P1;durP2;ratioP2;P2;SDS_P1;SDS_P2;PMS_P1;PMS_P2;Temp;Humidity;BMP_temperature;BMP_pressure;BME280_temperature;BME280_humidity;BME280_pressure;Samples;Min_cycle;Max_cycle;Signal;HPM_P1;HPM_P2
2022/05/10 00:00:53;;;;;;;;;25.50;23.50;;;;;19.43;56.25;101867.47;5070655;27;49815;-68
2022/05/10 00:03:21;;;;;;;;;33.75;29.75;;;;;19.50;56.61;101879.06;5070373;27;49979;-68
2022/05/10 00:05:46;;;;;;;;;26.25;26.00;;;;;19.44;56.45;101867.47;5070407;28;49847;-68
2022/05/10 00:08:15;;;;;;;;;31.25;24.25;;;;;19.26;56.84;101846.16;5070354;28;49757;-68
2022/05/10 00:10:42;;;;;;;;;21.50;18.00;;;;;19.41;56.97;101864.81;5070318;27;49566;-68
2022/05/10 00:13:08;;;;;;;;;27.50;24.75;;;;;19.30;56.97;101839.03;5069837;28;50526;-68
2022/05/10 00:15:33;;;;;;;;;23.00;23.00;;;;;19.24;57.43;101834.59;5070257;28;49685;-68
2022/05/10 00:17:59;;;;;;;;;30.50;26.25;;;;;19.27;57.28;101842.59;5070397;27;49804;-68
2022/05/10 00:20:27;;;;;;;;;29.00;28.00;;;;;19.36;57.41;101866.56;5073545;27;50123;-68
2022/05/10 00:22:52;;;;;;;;;26.75;23.00;;;;;19.20;57.83;101835.47;5072810;27;50556;-68
2022/05/10 00:25:22;;;;;;;;;29.50;28.25;;;;;18.65;57.67;101755.50;5069962;28;50024;-69
2022/05/10 00:27:48;;;;;;;;;25.50;23.50;;;;;19.12;58.02;101839.91;5070175;28;49991;-68
2022/05/10 00:30:13;;;;;;;;;25.25;25.25;;;;;19.18;58.36;101850.56;5070241;28;49849;-69
2022/05/10 00:32:40;;;;;;;;;27.00;23.50;;;;;19.22;58.46;101868.34;5069801;28;51128;-68
2022/05/10 00:35:15;;;;;;;;;32.25;29.75;;;;;19.19;58.52;101862.97;5069904;28;49640;-74
2022/05/10 00:37:41;;;;;;;;;27.50;26.75;;;;;19.12;58.58;101855.88;5070004;28;49759;-69
2022/05/10 00:40:07;;;;;;;;;32.25;27.25;;;;;19.15;58.96;101859.44;5070103;28;49827;-68
2022/05/10 00:42:38;;;;;;;;;21.50;21.00;;;;;19.03;59.00;101842.53;5069592;27;50758;-73
2022/05/10 00:45:17;;;;;;;;;29.50;28.75;;;;;19.01;59.42;101837.22;5070334;28;50056;-72
2022/05/10 00:47:59;;;;;;;;;31.25;26.75;;;;;18.89;59.56;101815.88;5073425;27;49817;-70
2022/05/10 00:50:35;;;;;;;;;27.50;26.75;;;;;19.02;59.92;101846.09;5067392;28;50360;-68
2022/05/10 00:53:11;;;;;;;;;27.75;25.75;;;;;18.79;59.90;101806.09;5073082;28;50808;-75
2022/05/10 00:55:48;;;;;;;;;27.50;26.50;;;;;18.97;60.16;101846.06;5073060;28;50040;-69
2022/05/10 00:58:59;;;;;;;;;27.75;24.75;;;;;18.81;60.98;101821.16;5073240;28;49938;-72
2022/05/10 01:01:31;;;;;;;;;23.75;22.75;;;;;18.85;60.33;101830.06;5062609;28;50291;-72
2022/05/10 01:04:17;;;;;;;;;27.50;24.00;;;;;18.87;60.76;101844.25;5072966;27;49650;-71
2022/05/10 01:07:08;;;;;;;;;30.50;27.50;;;;;18.83;60.62;101838.03;5072716;28;49750;-69
2022/05/10 01:09:49;;;;;;;;;25.75;25.25;;;;;18.80;60.46;101834.47;5072797;28;49871;-69
2022/05/10 01:12:24;;;;;;;;;28.75;26.75;;;;;18.70;60.19;101814.91;5073330;27;49731;-75
2022/05/10 01:15:01;;;;;;;;;27.00;24.25;;;;;18.67;60.19;101814.91;5072655;28;50605;-69
2022/05/10 01:17:27;;;;;;;;;29.25;28.25;;;;;18.72;61.03;101815.84;5073033;28;49869;-71
2022/05/10 01:19:52;;;;;;;;;29.25;26.25;;;;;18.63;60.75;101812.22;5073060;28;49766;-73
2022/05/10 01:22:33;;;;;;;;;27.50;25.75;;;;;18.61;61.02;101812.19;5079630;27;49997;-71
2022/05/10 01:25:29;;;;;;;;;25.00;25.00;;;;;18.64;61.04;101819.31;5066348;28;50769;-72
2022/05/10 01:28:23;;;;;;;;;29.50;26.50;;;;;18.62;60.96;101819.28;5072605;27;50065;-71
2022/05/10 01:30:49;;;;;;;;;38.25;30.75;;;;;18.58;61.18;101817.50;5072728;28;49857;-72
2022/05/10 01:33:40;;;;;;;;;28.50;25.50;;;;;18.52;61.82;101810.34;5072964;28;49760;-72
2022/05/10 01:36:21;;;;;;;;;28.25;26.75;;;;;18.37;61.62;101789.03;5072870;27;49778;-72
2022/05/10 01:39:15;;;;;;;;;25.75;25.75;;;;;18.36;62.07;101784.59;5075875;27;49714;-72
2022/05/10 01:41:46;;;;;;;;;27.00;25.00;;;;;18.48;62.11;101805.94;5068833;28;50079;-73
2022/05/10 01:44:14;;;;;;;;;28.50;26.75;;;;;18.47;62.22;101805.91;5072168;28;49518;-67
2022/05/10 01:46:39;;;;;;;;;30.50;26.50;;;;;18.38;62.58;101795.25;5071091;28;50504;-71
2022/05/10 01:49:22;;;;;;;;;34.75;30.50;;;;;18.42;62.28;101802.34;5072749;28;49743;-68
2022/05/10 01:52:18;;;;;;;;;31.25;27.25;;;;;18.30;62.65;101784.56;5072504;28;50042;-68
2022/05/10 01:54:46;;;;;;;;;28.50;26.75;;;;;18.41;62.57;101803.22;5072498;27;50080;-73
2022/05/10 01:57:15;;;;;;;;;28.75;24.25;;;;;18.41;62.70;101795.25;5070793;28;50903;-75
2022/05/10 01:59:51;;;;;;;;;26.75;25.75;;;;;18.34;63.28;101788.16;5072952;27;49759;-72
2022/05/10 02:02:21;;;;;;;;;22.00;22.00;;;;;18.31;62.84;101779.25;5068753;28;49671;-68
2022/05/10 02:04:50;;;;;;;;;26.00;25.50;;;;;18.41;63.38;101790.81;5072250;28;49952;-68
2022/05/10 02:07:20;;;;;;;;;31.25;24.75;;;;;18.43;63.26;101798.78;5072200;28;51016;-67
2022/05/10 02:09:51;;;;;;;;;27.50;25.75;;;;;18.40;63.49;101788.16;5072691;27;49941;-67
2022/05/10 02:12:28;;;;;;;;;29.25;29.25;;;;;18.28;63.41;101765.06;5074531;27;49724;-70
2022/05/10 02:14:58;;;;;;;;;22.25;22.25;;;;;18.37;63.61;101773.09;5070808;28;50059;-70
2022/05/10 02:17:33;;;;;;;;;13.25;13.25;;;;;18.45;63.73;101784.66;5071850;28;49941;-68
2022/05/10 02:20:09;;;;;;;;;26.25;25.50;;;;;18.46;64.21;101777.56;5065034;28;49747;-67
2022/05/10 02:22:47;;;;;;;;;27.00;24.25;;;;;18.46;64.13;101775.78;5073570;27;49680;-67
2022/05/10 02:25:19;;;;;;;;;29.25;26.25;;;;;18.45;64.41;101778.44;5072061;28;49811;-68
2022/05/10 02:27:52;;;;;;;;;25.75;25.50;;;;;18.50;64.87;101777.56;5069128;27;53018;-67
2022/05/10 02:30:27;;;;;;;;;27.00;24.75;;;;;18.52;64.71;101782.88;5071987;27;49974;-67
2022/05/10 02:33:08;;;;;;;;;23.25;22.50;;;;;18.50;64.94;101772.25;5071911;27;49692;-68
2022/05/10 02:35:45;;;;;;;;;27.75;25.00;;;;;18.52;65.15;101781.09;5074026;27;50240;-67
2022/05/10 02:38:14;;;;;;;;;29.75;27.50;;;;;18.48;65.19;101765.16;5065640;28;49857;-67
2022/05/10 02:40:41;;;;;;;;;33.50;32.00;;;;;18.55;65.19;101772.28;5071383;28;49669;-67
2022/05/10 02:43:24;;;;;;;;;34.00;31.00;;;;;18.50;65.01;101761.59;5071502;27;49857;-67
2022/05/10 02:45:50;;;;;;;;;40.50;34.75;;;;;18.55;64.31;101767.84;5072900;27;49975;-68
2022/05/10 02:48:26;;;;;;;;;35.50;32.75;;;;;18.58;64.78;101766.97;5071210;27;49925;-70
2022/05/10 02:50:51;;;;;;;;;31.50;29.00;;;;;18.52;65.19;101762.50;5077035;27;49923;-68
2022/05/10 02:53:17;;;;;;;;;35.75;33.00;;;;;18.57;64.91;101763.41;5071568;28;49957;-67
2022/05/10 02:55:51;;;;;;;;;45.00;37.00;;;;;18.60;64.56;101767.84;5071373;27;49669;-67
2022/05/10 02:58:40;;;;;;;;;37.00;33.50;;;;;18.62;64.99;101770.50;5071189;28;49771;-67
2022/05/10 03:01:34;;;;;;;;;41.75;33.25;;;;;18.52;65.04;101748.31;5050043;28;49789;-67
2022/05/10 03:04:01;;;;;;;;;38.50;33.00;;;;;18.52;64.74;101737.69;5068374;28;50371;-68
2022/05/10 03:06:28;;;;;;;;;39.75;33.00;;;;;18.04;64.28;101659.53;5071568;28;49804;-68
2022/05/10 03:08:55;;;;;;;;;36.50;34.00;;;;;18.63;64.72;101759.91;5071062;28;49739;-67
2022/05/10 03:11:20;;;;;;;;;39.50;33.50;;;;;18.57;64.46;101749.25;5070672;28;49922;-67
2022/05/10 03:13:47;;;;;;;;;40.25;35.75;;;;;18.52;64.06;101735.03;5071031;27;49714;-67
2022/05/10 03:16:15;;;;;;;;;43.50;34.25;;;;;18.47;63.85;101720.84;5077047;27;50154;-67
2022/05/10 03:18:40;;;;;;;;;32.00;31.25;;;;;18.59;63.94;101742.16;5072510;27;49909;-67
2022/05/10 03:21:05;;;;;;;;;34.75;32.50;;;;;18.55;64.08;101727.06;5070172;28;52452;-68
2022/05/10 03:23:31;;;;;;;;;40.50;35.00;;;;;18.52;63.55;101716.41;5071112;28;49903;-67
2022/05/10 03:25:57;;;;;;;;;42.25;36.75;;;;;18.60;62.73;101735.94;5070866;28;49941;-67
2022/05/10 03:28:24;;;;;;;;;39.00;34.00;;;;;18.56;62.29;101735.06;5078053;27;50623;-67
2022/05/10 03:30:50;;;;;;;;;36.75;33.50;;;;;18.57;62.73;101719.97;5070808;27;49558;-67
2022/05/10 03:33:16;;;;;;;;;31.25;31.00;;;;;18.58;62.97;101732.41;5070765;28;49724;-67
2022/05/10 03:35:42;;;;;;;;;39.75;34.50;;;;;18.52;62.81;101725.28;5070909;28;49938;-67
2022/05/10 03:38:07;;;;;;;;;35.00;30.75;;;;;18.58;62.84;101722.66;5070621;28;50523;-67
2022/05/10 03:40:33;;;;;;;;;32.25;29.50;;;;;18.52;63.14;101711.97;5070595;28;49797;-68
2022/05/10 03:42:59;;;;;;;;;45.00;36.25;;;;;18.51;62.50;101714.63;5070567;28;49903;-71
2022/05/10 03:45:24;;;;;;;;;33.25;31.75;;;;;18.38;62.91;101687.13;5070850;28;49988;-67
2022/05/10 03:47:51;;;;;;;;;32.75;31.25;;;;;18.49;62.58;101705.78;5070617;28;50773;-67
2022/05/10 03:50:20;;;;;;;;;35.00;31.50;;;;;18.01;62.36;101631.19;5070584;28;50028;-67
2022/05/10 03:52:46;;;;;;;;;33.50;31.75;;;;;18.51;62.01;101717.28;5070449;28;50139;-67
2022/05/10 03:55:15;;;;;;;;;37.00;33.25;;;;;18.50;62.28;101721.72;5070435;28;49718;-68
2022/05/10 03:57:41;;;;;;;;;35.00;29.25;;;;;18.45;62.95;101707.53;5070390;27;50910;-73
2022/05/10 04:00:11;;;;;;;;;33.00;30.25;;;;;18.52;62.94;101724.38;5070583;27;50056;-68
2022/05/10 04:02:37;;;;;;;;;31.00;30.25;;;;;18.52;63.16;101711.97;5069237;28;49806;-67
2022/05/10 04:05:03;;;;;;;;;29.50;29.50;;;;;18.50;62.98;101705.78;5070632;28;49565;-67
2022/05/10 04:07:29;;;;;;;;;25.50;24.75;;;;;18.47;63.50;101702.22;5070019;28;50932;-74
2022/05/10 04:09:54;;;;;;;;;36.00;31.25;;;;;18.53;62.89;101719.09;5072871;28;49772;-68
2022/05/10 04:12:19;;;;;;;;;31.00;30.25;;;;;18.38;63.17;101687.13;5069075;28;50483;-81
2022/05/10 04:14:45;;;;;;;;;30.75;30.50;;;;;18.44;63.63;101697.81;5071505;27;50116;-72
2022/05/10 04:17:10;;;;;;;;;32.50;30.75;;;;;18.38;62.88;101683.59;5071913;28;51689;-78
2022/05/10 04:19:36;;;;;;;;;35.25;28.75;;;;;18.34;62.72;101685.34;5073856;28;49883;-88
2022/05/10 04:22:01;;;;;;;;;33.25;30.75;;;;;18.46;62.82;101698.69;5074659;28;49790;-69
2022/05/10 04:24:26;;;;;;;;;33.25;31.50;;;;;18.49;63.22;101696.03;5076649;28;49671;-68
2022/05/10 04:26:52;;;;;;;;;33.25;31.25;;;;;18.50;63.58;101692.47;5073800;27;50338;-73
2022/05/10 04:29:17;;;;;;;;;33.75;30.25;;;;;18.52;63.54;101695.13;5073804;28;49728;-76
2022/05/10 04:31:43;;;;;;;;;33.75;32.50;;;;;18.60;63.27;101701.38;5073823;27;49799;-70
2022/05/10 04:34:08;;;;;;;;;24.50;24.50;;;;;18.56;62.87;101695.16;5073664;28;49814;-68
2022/05/10 04:36:34;;;;;;;;;31.25;27.50;;;;;18.64;62.94;101700.50;5073405;28;49773;-70
2022/05/10 04:38:59;;;;;;;;;32.75;31.50;;;;;18.57;63.37;101686.31;5073507;28;49683;-68
2022/05/10 04:41:32;;;;;;;;;40.00;33.75;;;;;18.63;62.61;101697.84;5072181;28;49776;-68
2022/05/10 04:44:03;;;;;;;;;34.25;30.00;;;;;18.60;63.27;101688.97;5066419;28;50184;-68
2022/05/10 04:46:30;;;;;;;;;42.00;33.75;;;;;18.73;63.06;101712.97;5071835;28;51746;-69
2022/05/10 04:48:56;;;;;;;;;36.25;32.00;;;;;18.73;63.29;101705.00;5073244;27;49691;-68
2022/05/10 04:51:22;;;;;;;;;43.00;33.50;;;;;18.73;63.05;101697.03;5073455;28;50096;-68
2022/05/10 04:53:48;;;;;;;;;39.25;35.25;;;;;18.72;63.31;101698.81;5073668;28;49938;-69
2022/05/10 04:56:13;;;;;;;;;42.25;33.50;;;;;18.75;63.16;101690.81;5072918;28;49767;-68
2022/05/10 04:58:39;;;;;;;;;41.00;33.25;;;;;18.66;62.91;101684.59;5073495;28;49842;-67
2022/05/10 05:01:07;;;;;;;;;34.25;32.75;;;;;18.83;63.16;101693.50;5073277;28;50180;-68
2022/05/10 05:03:33;;;;;;;;;38.50;32.75;;;;;18.91;63.06;101702.34;5073369;28;49821;-68
2022/05/10 05:05:58;;;;;;;;;35.00;31.25;;;;;18.94;63.14;101709.47;5077742;27;50774;-68
2022/05/10 05:08:24;;;;;;;;;39.25;33.00;;;;;18.85;63.23;101689.94;5073608;27;50189;-68
2022/05/10 05:10:50;;;;;;;;;39.25;33.00;;;;;18.94;63.11;101701.50;5072920;28;49906;-69
2022/05/10 05:13:16;;;;;;;;;33.25;30.50;;;;;18.97;63.14;101705.03;5073200;28;49630;-69
2022/05/10 05:15:42;;;;;;;;;35.00;29.75;;;;;19.01;63.40;101695.25;5072934;27;50865;-68
2022/05/10 05:18:08;;;;;;;;;37.25;32.25;;;;;19.11;63.32;101711.28;5072806;28;49887;-68
2022/05/10 05:20:34;;;;;;;;;33.00;30.00;;;;;19.09;63.75;101699.72;5072994;27;49656;-68
2022/05/10 05:23:01;;;;;;;;;30.75;29.00;;;;;19.13;62.86;101706.84;5073088;28;49623;-68
2022/05/10 05:25:29;;;;;;;;;32.75;30.75;;;;;18.50;63.05;101588.78;5072856;27;51498;-70
2022/05/10 05:27:54;;;;;;;;;34.25;30.00;;;;;19.11;62.77;101691.75;5069772;27;50068;-68
2022/05/10 05:30:20;;;;;;;;;30.00;29.00;;;;;19.20;62.75;101702.38;5069462;28;49982;-68
2022/05/10 05:32:45;;;;;;;;;37.50;31.00;;;;;19.17;62.68;101684.63;5072540;28;49669;-72
2022/05/10 05:35:13;;;;;;;;;33.75;30.50;;;;;19.18;62.30;101677.53;5072495;28;49808;-68
2022/05/10 05:37:39;;;;;;;;;35.00;31.00;;;;;19.29;62.19;101688.19;5072538;27;49608;-70
2022/05/10 05:40:10;;;;;;;;;24.75;23.25;;;;;19.39;58.95;101696.16;5077091;27;49968;-71
2022/05/10 05:42:36;;;;;;;;;21.75;20.75;;;;;19.05;56.43;101626.09;5072153;27;50069;-71
2022/05/10 05:45:04;;;;;;;;;19.50;18.50;;;;;19.59;55.59;101712.19;5073494;27;49850;-74
2022/05/10 05:47:30;;;;;;;;;18.00;17.50;;;;;19.72;54.39;101719.25;5072447;28;49841;-75
2022/05/10 05:49:55;;;;;;;;;15.50;14.50;;;;;19.64;53.80;101689.06;5071191;28;49886;-75
2022/05/10 05:52:22;;;;;;;;;21.00;19.00;;;;;19.83;53.45;101702.34;5072720;28;49811;-78
2022/05/10 05:54:51;;;;;;;;;15.75;15.50;;;;;19.91;53.97;101696.13;5077305;27;49985;-76
2022/05/10 05:57:16;;;;;;;;;19.00;16.00;;;;;20.07;53.17;101707.59;5077177;27;49802;-69
2022/05/10 05:59:42;;;;;;;;;13.25;11.75;;;;;20.23;51.02;101714.66;5070387;28;49736;-74
2022/05/10 06:02:19;;;;;;;;;16.75;16.75;;;;;20.07;50.85;101666.72;5070556;28;49643;-76
2022/05/10 06:04:45;;;;;;;;;19.00;16.50;;;;;20.21;50.48;101678.25;5069600;28;51047;-74
2022/05/10 06:07:14;;;;;;;;;15.00;14.00;;;;;20.50;50.34;101697.69;5071861;28;49618;-75
2022/05/10 06:09:41;;;;;;;;;16.50;15.50;;;;;20.65;49.42;101711.81;5070760;28;50141;-76
2022/05/10 06:12:08;;;;;;;;;15.50;13.50;;;;;20.83;49.37;101717.94;5072176;27;49607;-78
2022/05/10 06:14:34;;;;;;;;;15.00;15.00;;;;;20.82;49.37;101700.16;5071644;28;52102;-74
2022/05/10 06:17:00;;;;;;;;;19.75;17.00;;;;;21.01;49.30;101713.38;5071983;28;49918;-75
2022/05/10 06:19:27;;;;;;;;;16.50;15.75;;;;;21.09;49.00;101695.53;5072105;28;49926;-75
2022/05/10 06:21:52;;;;;;;;;20.25;17.75;;;;;21.11;48.49;101675.91;5072184;28;49726;-75
2022/05/10 06:24:18;;;;;;;;;16.50;16.50;;;;;21.26;47.94;101676.72;5070162;28;52556;-76
2022/05/10 06:26:43;;;;;;;;;16.00;16.00;;;;;21.31;47.78;101659.75;5072050;28;49741;-75
2022/05/10 06:29:09;;;;;;;;;18.75;16.00;;;;;21.69;47.33;101709.25;5072030;28;49917;-75
2022/05/10 06:31:36;;;;;;;;;15.75;15.75;;;;;21.84;47.41;101701.09;5070643;28;49772;-76
2022/05/10 06:34:02;;;;;;;;;16.25;15.50;;;;;21.85;46.85;101675.25;5070331;28;51962;-75
2022/05/10 06:36:27;;;;;;;;;17.25;17.00;;;;;21.94;46.73;101677.81;5071542;28;49779;-75
2022/05/10 06:38:53;;;;;;;;;19.25;17.50;;;;;22.12;45.89;101680.31;5071478;28;50486;-75
2022/05/10 06:41:18;;;;;;;;;17.00;14.25;;;;;22.15;45.76;101668.69;5071989;28;50215;-75
2022/05/10 06:43:43;;;;;;;;;13.25;12.25;;;;;22.23;46.44;101665.00;5070878;28;50784;-76
2022/05/10 06:46:15;;;;;;;;;18.00;17.50;;;;;22.34;45.75;101674.69;5070209;28;49951;-75
2022/05/10 06:48:40;;;;;;;;;17.25;15.00;;;;;22.37;45.32;101664.81;5070435;28;49842;-75
2022/05/10 06:51:08;;;;;;;;;18.50;16.00;;;;;22.47;45.61;101663.78;5078014;27;50161;-75
2022/05/10 06:53:36;;;;;;;;;12.75;12.75;;;;;22.82;46.27;101705.22;5065469;27;50713;-75
2022/05/10 06:56:01;;;;;;;;;18.75;17.50;;;;;22.78;44.89;101690.13;5069842;27;49870;-76
2022/05/10 06:58:26;;;;;;;;;17.75;17.75;;;;;22.90;44.63;101691.75;5073575;27;50171;-75
2022/05/10 07:00:52;;;;;;;;;16.25;14.50;;;;;22.84;43.85;101672.19;5075141;27;49980;-75
2022/05/10 07:03:23;;;;;;;;;21.75;17.50;;;;;22.97;43.87;101683.63;5071056;27;51192;-76
2022/05/10 07:05:49;;;;;;;;;16.50;16.50;;;;;22.90;43.73;101657.84;5073357;27;49766;-76
2022/05/10 07:08:14;;;;;;;;;15.75;14.50;;;;;23.20;43.64;101695.75;5070671;27;49966;-75
2022/05/10 07:10:41;;;;;;;;;16.50;15.50;;;;;23.19;43.70;101692.19;5071160;28;50125;-75
2022/05/10 07:13:07;;;;;;;;;15.25;14.25;;;;;23.31;42.81;101694.63;5070975;27;49737;-76
2022/05/10 07:15:32;;;;;;;;;14.75;14.75;;;;;23.32;42.86;101674.97;5070657;27;49827;-75
2022/05/10 07:17:57;;;;;;;;;14.00;14.00;;;;;23.39;43.05;101683.78;5073453;27;49619;-75
2022/05/10 07:20:23;;;;;;;;;16.00;15.00;;;;;23.34;43.18;101659.75;5071196;27;49688;-77
2022/05/10 07:22:49;;;;;;;;;17.50;17.50;;;;;23.55;42.93;101689.78;5070433;27;52460;-77
2022/05/10 07:25:18;;;;;;;;;13.50;12.25;;;;;23.55;42.82;101677.25;5070642;28;49739;-77
2022/05/10 07:27:44;;;;;;;;;13.75;13.75;;;;;23.62;43.20;101670.88;5070781;27;49708;-76
2022/05/10 07:30:11;;;;;;;;;15.25;15.25;;;;;23.46;42.13;101633.66;5070875;27;49863;-76
2022/05/10 07:32:37;;;;;;;;;15.00;15.00;;;;;23.51;42.27;101642.50;5069375;28;52766;-77
2022/05/10 07:35:03;;;;;;;;;20.00;16.00;;;;;23.72;41.81;101685.00;5070966;28;50192;-76
2022/05/10 07:37:29;;;;;;;;;14.25;14.25;;;;;23.65;42.19;101681.56;5074380;27;49762;-77
2022/05/10 07:39:55;;;;;;;;;16.75;16.75;;;;;23.54;42.06;101671.91;5073209;27;49783;-76
2022/05/10 07:42:20;;;;;;;;;15.75;15.75;;;;;23.44;42.67;101681.91;5078055;27;51868;-76
2022/05/10 07:44:46;;;;;;;;;16.00;16.00;;;;;23.33;42.92;101667.81;5069201;27;50060;-75
2022/05/10 07:47:11;;;;;;;;;15.00;14.75;;;;;23.18;43.53;101652.91;5070467;28;49935;-75
2022/05/10 07:49:37;;;;;;;;;16.25;15.50;;;;;23.35;42.89;101680.25;5073848;27;49644;-72
2022/05/10 07:52:04;;;;;;;;;17.25;16.25;;;;;23.40;43.53;101678.41;5070284;28;49993;-71
2022/05/10 07:54:29;;;;;;;;;17.50;17.50;;;;;23.50;42.60;101668.41;5069382;28;49754;-72
2022/05/10 07:56:54;;;;;;;;;15.00;13.75;;;;;23.69;42.45;101682.38;5070454;27;49829;-72
2022/05/10 07:59:20;;;;;;;;;14.50;13.50;;;;;23.68;41.94;101649.34;5070709;27;49778;-71
2022/05/10 08:01:45;;;;;;;;;14.75;14.50;;;;;24.04;41.61;101670.09;5070411;28;50915;-71
2022/05/10 08:04:11;;;;;;;;;20.25;18.50;;;;;24.23;41.03;101690.25;5070305;28;49629;-72
2022/05/10 08:06:36;;;;;;;;;17.25;15.75;;;;;24.36;41.57;101693.59;5070410;28;49609;-73
2022/05/10 08:09:01;;;;;;;;;16.50;16.50;;;;;24.37;40.98;101684.63;5070540;28;49784;-72
2022/05/10 08:11:27;;;;;;;;;15.00;14.75;;;;;24.29;40.90;101676.69;5070194;28;50324;-72
2022/05/10 08:13:52;;;;;;;;;20.50;18.50;;;;;24.37;41.20;101687.28;5070302;28;49682;-72
2022/05/10 08:16:18;;;;;;;;;14.00;13.50;;;;;24.52;41.68;101701.28;5070368;27;49804;-72
2022/05/10 08:18:45;;;;;;;;;18.25;18.25;;;;;24.43;41.37;101676.44;5070401;28;49916;-73
2022/05/10 08:21:12;;;;;;;;;18.50;17.50;;;;;24.60;41.00;101700.19;5069825;28;50731;-72
2022/05/10 08:23:38;;;;;;;;;15.25;14.50;;;;;24.71;41.41;101698.19;5069830;28;49644;-72
2022/05/10 08:26:06;;;;;;;;;15.50;14.50;;;;;24.70;40.89;101678.47;5070374;28;49665;-72
2022/05/10 08:28:34;;;;;;;;;12.25;12.25;;;;;24.94;40.61;101679.72;5070419;28;49894;-72
2022/05/10 08:31:02;;;;;;;;;12.50;12.00;;;;;25.02;39.91;101676.88;5070081;28;50665;-72
2022/05/10 08:33:31;;;;;;;;;14.25;14.25;;;;;25.19;39.67;101671.06;5068768;28;49753;-72
2022/05/10 08:35:57;;;;;;;;;15.25;14.25;;;;;25.47;39.15;101690.03;5070053;27;50058;-73
2022/05/10 08:38:27;;;;;;;;;16.25;15.25;;;;;25.45;38.34;101673.09;5070102;28;49673;-72
2022/05/10 08:41:13;;;;;;;;;17.00;17.00;;;;;25.61;39.19;101687.88;5069562;28;50839;-73
2022/05/10 08:43:47;;;;;;;;;15.75;15.75;;;;;25.71;39.10;101675.09;5069649;28;49717;-73
2022/05/10 08:46:17;;;;;;;;;17.00;15.25;;;;;25.68;38.69;101676.94;5069999;28;49679;-72
2022/05/10 08:48:46;;;;;;;;;15.75;14.75;;;;;25.68;38.22;101655.41;5070068;28;49959;-73
2022/05/10 08:51:12;;;;;;;;;15.50;15.00;;;;;25.90;37.89;101684.44;5069603;28;49836;-74
2022/05/10 08:53:37;;;;;;;;;13.75;12.50;;;;;25.80;37.18;101638.09;5069688;27;49972;-74
2022/05/10 08:56:14;;;;;;;;;15.00;13.75;;;;;26.16;37.23;101686.38;5069530;28;49742;-72
2022/05/10 08:58:47;;;;;;;;;13.75;13.75;;;;;26.17;36.64;101664.81;5069919;28;49826;-71
2022/05/10 09:01:21;;;;;;;;;15.50;14.25;;;;;26.44;36.07;101671.22;5062452;28;52856;-71
2022/05/10 09:04:31;;;;;;;;;17.50;14.50;;;;;26.53;36.56;101643.97;5069606;27;49681;-71
2022/05/10 09:07:19;;;;;;;;;16.50;16.50;;;;;26.71;36.07;101639.81;5072365;28;49791;-71
2022/05/10 09:10:24;;;;;;;;;12.00;12.00;;;;;27.08;35.17;101668.28;5073288;28;49805;-72
2022/05/10 09:13:05;;;;;;;;;13.75;13.00;;;;;27.29;34.86;101658.56;5071000;28;50950;-72
2022/05/10 09:15:37;;;;;;;;;12.00;12.00;;;;;27.53;35.17;101665.81;5072670;28;49688;-71
2022/05/10 09:18:25;;;;;;;;;15.75;13.75;;;;;27.58;34.92;101660.25;5071441;28;49768;-72
2022/05/10 09:21:19;;;;;;;;;13.75;12.50;;;;;27.73;34.51;101666.94;5066649;28;49640;-72
2022/05/10 09:24:02;;;;;;;;;15.75;15.75;;;;;27.86;34.11;101660.16;5064576;28;50922;-72
2022/05/10 09:26:44;;;;;;;;;15.25;13.25;;;;;27.84;33.46;101657.53;5072746;28;49883;-71
2022/05/10 09:29:10;;;;;;;;;13.75;12.25;;;;;27.98;33.39;101658.81;5072955;28;49863;-70
2022/05/10 09:37:29;;;;;;;;;12.00;12.00;;;;;28.04;33.57;101648.69;5072587;28;49924;-72
2022/05/10 09:39:57;;;;;;;;;12.75;11.25;;;;;28.02;33.38;101653.25;5072576;28;50010;-71
2022/05/10 09:42:31;;;;;;;;;14.00;13.50;;;;;27.90;33.36;101648.34;5072643;28;49975;-71
2022/05/10 09:45:00;;;;;;;;;15.00;13.00;;;;;27.74;33.27;101648.00;5072429;28;50848;-71
2022/05/10 09:47:25;;;;;;;;;11.00;10.50;;;;;27.31;32.92;101625.25;5071115;28;50007;-71
2022/05/10 09:49:51;;;;;;;;;16.00;13.75;;;;;27.17;33.93;101605.09;5072341;28;50274;-71
2022/05/10 09:52:22;;;;;;;;;12.50;12.50;;;;;27.24;33.61;101647.97;5072382;28;49933;-72
2022/05/10 09:54:52;;;;;;;;;12.50;10.75;;;;;27.18;33.65;101648.16;5071814;28;49740;-72
2022/05/10 09:57:46;;;;;;;;;14.00;14.00;;;;;27.12;33.77;101643.00;5072453;28;49731;-70
2022/05/10 10:00:15;;;;;;;;;11.25;9.75;;;;;26.99;33.99;101633.50;5071401;28;49815;-70
2022/05/10 10:02:41;;;;;;;;;12.25;11.75;;;;;26.75;33.80;101594.81;5072526;28;50177;-71
2022/05/10 10:05:30;;;;;;;;;12.25;11.75;;;;;26.79;34.17;101634.19;5072152;27;49853;-71
2022/05/10 10:07:57;;;;;;;;;13.00;13.00;;;;;26.62;34.21;101613.16;5070706;28;49867;-71
2022/05/10 10:10:35;;;;;;;;;11.75;11.75;;;;;26.64;34.14;101621.22;5071923;28;49787;-71
2022/05/10 10:13:28;;;;;;;;;12.00;10.25;;;;;26.65;34.86;101623.88;5070948;28;49989;-70
2022/05/10 10:15:54;;;;;;;;;12.50;11.75;;;;;26.55;34.52;101614.31;5070577;28;49943;-71
2022/05/10 10:18:55;;;;;;;;;13.50;11.75;;;;;26.49;34.15;101627.97;5069846;28;50183;-70
2022/05/10 10:21:27;;;;;;;;;8.75;8.75;;;;;26.38;34.68;101609.47;5042062;28;49817;-70
2022/05/10 10:24:00;;;;;;;;;10.00;10.00;;;;;26.27;34.72;101597.25;5071693;27;49949;-72
2022/05/10 10:26:37;;;;;;;;;11.25;11.25;;;;;26.39;34.67;101632.75;5071765;27;50959;-72
2022/05/10 10:29:32;;;;;;;;;12.75;12.75;;;;;26.38;34.07;101630.13;5065852;28;49890;-72
2022/05/10 10:32:33;;;;;;;;;10.75;10.75;;;;;26.33;33.73;101622.13;5071735;28;49819;-72
2022/05/10 10:35:09;;;;;;;;;11.25;11.25;;;;;26.24;34.41;101617.03;5066047;28;49909;-72
2022/05/10 10:37:48;;;;;;;;;10.50;9.50;;;;;26.28;33.76;101621.41;5071790;28;50505;-72
2022/05/10 10:40:32;;;;;;;;;10.25;10.25;;;;;26.27;34.43;101610.69;5069951;28;49642;-73
2022/05/10 10:43:14;;;;;;;;;9.00;9.00;;;;;26.31;34.23;101626.69;5064901;27;49902;-68
2022/05/10 10:45:44;;;;;;;;;10.50;10.50;;;;;26.38;33.77;101624.75;5067256;28;49772;-72
2022/05/10 10:48:32;;;;;;;;;10.50;10.50;;;;;26.43;34.20;101618.25;5052881;28;52686;-69
2022/05/10 10:50:58;;;;;;;;;11.75;11.75;;;;;26.36;33.44;101605.03;5071089;28;49858;-69
2022/05/10 10:53:26;;;;;;;;;10.00;10.00;;;;;26.51;33.26;101631.47;5071423;28;50095;-70
2022/05/10 10:56:10;;;;;;;;;13.00;9.50;;;;;26.63;33.71;101627.50;5071702;28;49941;-70
2022/05/10 10:58:55;;;;;;;;;11.50;11.50;;;;;26.70;34.13;101618.31;5065338;28;50766;-70
2022/05/10 11:01:39;;;;;;;;;14.25;10.50;;;;;26.73;33.73;101613.72;5071180;27;49791;-68
2022/05/10 11:04:29;;;;;;;;;11.00;11.00;;;;;26.82;32.88;101609.81;5068665;28;50043;-70
2022/05/10 11:06:55;;;;;;;;;12.25;12.25;;;;;26.55;33.11;101538.03;5065906;28;49758;-69
2022/05/10 11:09:51;;;;;;;;;12.50;12.50;;;;;27.12;32.97;101593.56;5069411;28;50606;-71
2022/05/10 11:12:37;;;;;;;;;9.75;9.25;;;;;27.35;33.17;101583.75;5068601;28;49829;-68
2022/05/10 11:15:05;;;;;;;;;10.00;10.00;;;;;27.59;33.20;101589.19;5068017;28;49719;-70
2022/05/10 11:17:42;;;;;;;;;6.00;6.00;;;;;27.85;32.57;101589.13;5069796;28;50087;-67
2022/05/10 11:20:10;;;;;;;;;13.75;13.75;;;;;28.10;32.20;101575.56;5069220;27;50980;-70
2022/05/10 11:22:38;;;;;;;;;10.25;10.25;;;;;28.30;31.72;101563.13;5067164;28;49944;-69
2022/05/10 11:25:31;;;;;;;;;9.00;9.00;;;;;28.65;31.55;101586.84;5069638;27;50037;-70
2022/05/10 11:28:12;;;;;;;;;10.00;9.50;;;;;28.87;31.26;101581.47;5068894;28;49664;-68
2022/05/10 11:30:37;;;;;;;;;10.00;10.00;;;;;28.87;30.59;101575.19;5069304;28;49771;-69
2022/05/10 11:33:11;;;;;;;;;11.75;10.75;;;;;28.83;30.35;101574.41;5069467;28;49800;-70